KCHK/CHK METAR and TAF weather

Enter ICAO airport designator
Station Type Date Time Source
KCHK METAR 2018/04/23 11:15 UTC NOAA

KCHK 231115Z AUTO 30005KT 10SM CLR 08/07 A3007 RMK AO2 T00820070


Station Type Date Time Source
KCHK Decoded METAR 2018/04/23 11:15 UTC NOAA

Chickasha, Chickasha Municipal Airport, OK, United States (KCHK) 35-05-46N 097-57-58W
Apr 23, 2018 - 07:15 AM EDT / 2018.04.23 1115 UTC
Wind: from the WNW (300 degrees) at 6 MPH (5 KT):0
Visibility: 10 mile(s):0
Sky conditions: clear
Temperature: 46.8 F (8.2 C)
Dew Point: 44.6 F (7.0 C)
Relative Humidity: 92%
Pressure (altimeter): 30.07 in. Hg (1018 hPa)
ob: KCHK 231115Z AUTO 30005KT 10SM CLR 08/07 A3007 RMK AO2 T00820070
cycle: 11

Station Type Date Time Source
KCHK TAF UTC NOAA

Error!


Example: see airport list